createdAt,value
2023-03-05T00:02:19.072Z,72.30
2023-03-05T00:04:45.747Z,72.46
2023-03-05T00:07:14.283Z,72.75
2023-03-05T00:09:40.830Z,72.54
2023-03-05T00:12:07.716Z,72.99
2023-03-05T00:14:34.230Z,72.70
2023-03-05T00:17:00.762Z,72.61
2023-03-05T00:19:27.294Z,72.98
2023-03-05T00:21:53.766Z,72.85
2023-03-05T00:24:20.359Z,73.00
2023-03-05T00:26:46.975Z,72.80
2023-03-05T00:29:18.558Z,72.85
2023-03-05T00:31:45.518Z,72.14
2023-03-05T00:34:12.806Z,72.24
2023-03-05T00:36:40.374Z,72.40
2023-03-05T00:39:06.900Z,72.44
2023-03-05T00:41:33.418Z,72.53
2023-03-05T00:44:00.275Z,72.88
2023-03-05T00:46:27.683Z,72.70
2023-03-05T00:48:55.443Z,72.83
2023-03-05T00:51:22.070Z,73.14
2023-03-05T00:53:49.306Z,73.20
2023-03-05T00:56:15.900Z,72.97
2023-03-05T00:58:42.572Z,72.70
2023-03-05T01:01:09.090Z,72.79
2023-03-05T01:03:35.844Z,73.00
2023-03-05T01:06:05.077Z,72.94
2023-03-05T01:08:31.786Z,72.86
2023-03-05T01:10:58.264Z,72.71
2023-03-05T01:13:24.809Z,72.88
2023-03-05T01:15:54.202Z,73.00
2023-03-05T01:18:20.996Z,73.05
2023-03-05T01:20:47.785Z,73.34
2023-03-05T01:23:14.461Z,73.29
2023-03-05T01:25:41.128Z,73.50
2023-03-05T01:28:07.886Z,73.62
2023-03-05T01:30:34.513Z,73.61
2023-03-05T01:33:01.106Z,73.59
2023-03-05T01:35:27.731Z,73.83
2023-03-05T01:37:54.702Z,73.92
2023-03-05T01:40:24.216Z,74.02
2023-03-05T01:42:55.610Z,73.88
2023-03-05T01:45:22.198Z,73.70
2023-03-05T01:47:49.173Z,73.74
2023-03-05T01:50:19.098Z,73.85
2023-03-05T01:53:12.033Z,73.97
2023-03-05T01:55:38.871Z,73.91
2023-03-05T01:58:07.144Z,73.89
2023-03-05T02:00:41.491Z,73.81
2023-03-05T02:03:08.287Z,73.98
2023-03-05T02:05:35.670Z,73.88
2023-03-05T02:08:06.539Z,73.90
2023-03-05T02:10:34.191Z,73.70
2023-03-05T02:13:01.422Z,73.65
2023-03-05T02:15:28.682Z,73.52
2023-03-05T02:17:55.287Z,73.73
2023-03-05T02:20:22.886Z,73.96
2023-03-05T02:22:49.496Z,73.83
2023-03-05T02:25:26.477Z,73.85
2023-03-05T02:28:03.978Z,73.95
2023-03-05T02:30:31.502Z,74.06
2023-03-05T02:32:58.337Z,73.88
2023-03-05T02:35:25.643Z,73.92
2023-03-05T02:37:52.201Z,73.58
2023-03-05T02:40:18.784Z,73.39
2023-03-05T02:42:45.492Z,73.39
2023-03-05T02:45:13.700Z,73.35
2023-03-05T02:47:40.320Z,73.30
2023-03-05T02:50:07.872Z,73.42
2023-03-05T02:52:34.402Z,73.41
2023-03-05T02:55:00.956Z,73.02
2023-03-05T02:57:29.479Z,73.33
2023-03-05T02:59:56.057Z,73.33
2023-03-05T03:02:22.610Z,73.43
2023-03-05T03:04:49.121Z,73.46
2023-03-05T03:07:15.665Z,73.40
2023-03-05T03:09:43.199Z,73.43
2023-03-05T03:12:10.293Z,73.38
2023-03-05T03:14:39.401Z,73.65
2023-03-05T03:17:09.654Z,73.22
2023-03-05T03:19:36.327Z,73.58
2023-03-05T03:22:03.540Z,73.66
2023-03-05T03:24:30.445Z,73.83
2023-03-05T03:26:56.929Z,73.70
2023-03-05T03:29:23.421Z,73.82
2023-03-05T03:31:50.133Z,73.99
2023-03-05T03:34:16.723Z,74.10
2023-03-05T03:36:43.758Z,74.50
2023-03-05T03:39:10.437Z,74.57
2023-03-05T03:41:37.609Z,74.30
2023-03-05T03:44:05.078Z,74.63
2023-03-05T03:46:31.683Z,74.94
2023-03-05T03:48:58.177Z,74.84
2023-03-05T03:51:24.688Z,74.71
2023-03-05T03:53:51.181Z,74.83
2023-03-05T03:56:17.729Z,74.66
2023-03-05T03:58:44.356Z,74.82
2023-03-05T04:01:10.866Z,74.75
2023-03-05T04:03:37.378Z,74.49
2023-03-05T04:06:04.628Z,74.53
2023-03-05T04:08:31.121Z,74.71
2023-03-05T04:10:57.601Z,74.89
2023-03-05T04:13:24.401Z,74.66
2023-03-05T04:15:50.981Z,74.67
2023-03-05T04:18:17.535Z,74.75
2023-03-05T04:20:44.025Z,74.64
2023-03-05T04:23:10.511Z,74.82
2023-03-05T04:25:36.992Z,74.95
2023-03-05T04:28:03.458Z,75.01
2023-03-05T04:30:31.363Z,75.00
2023-03-05T04:32:58.032Z,74.88
2023-03-05T04:35:24.582Z,74.86
2023-03-05T04:37:51.108Z,75.48
2023-03-05T04:40:18.140Z,75.54
2023-03-05T04:42:44.810Z,75.53
2023-03-05T04:45:11.392Z,75.41
2023-03-05T04:47:38.082Z,75.20
2023-03-05T04:50:05.400Z,75.20
2023-03-05T04:52:32.035Z,75.25
2023-03-05T04:54:58.679Z,75.37
2023-03-05T04:57:25.197Z,75.43
2023-03-05T04:59:51.685Z,75.39
2023-03-05T05:02:18.198Z,75.40
2023-03-05T05:04:45.934Z,75.87
2023-03-05T05:07:12.993Z,75.53
2023-03-05T05:09:41.558Z,75.99
2023-03-05T05:12:08.185Z,75.96
2023-03-05T05:14:34.701Z,76.52
2023-03-05T05:17:05.071Z,75.93
2023-03-05T05:19:32.271Z,75.82
2023-03-05T05:21:58.825Z,76.18
2023-03-05T05:24:25.353Z,76.13
2023-03-05T05:26:53.758Z,76.02
2023-03-05T05:29:20.273Z,75.64
2023-03-05T05:31:47.128Z,75.64
2023-03-05T05:34:13.890Z,75.53
2023-03-05T05:36:40.452Z,75.74
2023-03-05T05:39:06.984Z,75.91
2023-03-05T05:41:33.477Z,75.63
2023-03-05T05:43:59.965Z,76.00
2023-03-05T05:46:26.522Z,75.80
2023-03-05T05:48:53.023Z,75.60
2023-03-05T05:51:21.290Z,75.73
2023-03-05T05:53:47.761Z,76.10
2023-03-05T05:56:14.369Z,76.35
2023-03-05T05:58:41.272Z,76.11
2023-03-05T06:01:24.199Z,75.89
2023-03-05T06:03:50.708Z,75.89
2023-03-05T06:06:18.318Z,76.18
2023-03-05T06:08:44.798Z,76.06
2023-03-05T06:11:11.351Z,76.32
2023-03-05T06:13:38.015Z,76.54
2023-03-05T06:16:06.291Z,76.25
2023-03-05T06:18:33.274Z,76.02
2023-03-05T06:21:03.842Z,75.59
2023-03-05T06:23:30.750Z,75.75
2023-03-05T06:26:01.156Z,75.70
2023-03-05T06:28:28.049Z,75.47
2023-03-05T06:31:04.453Z,75.11
2023-03-05T06:33:31.292Z,75.07
2023-03-05T06:35:58.053Z,75.20
2023-03-05T06:38:24.598Z,75.44
2023-03-05T06:40:51.293Z,75.37
2023-03-05T06:43:17.889Z,75.00
2023-03-05T06:45:44.420Z,75.24
2023-03-05T06:48:11.756Z,75.57
2023-03-05T06:50:38.283Z,75.38
2023-03-05T06:53:05.487Z,75.15
2023-03-05T06:55:39.700Z,74.74
2023-03-05T06:58:06.585Z,74.52
2023-03-05T07:00:33.159Z,74.52
2023-03-05T07:02:59.716Z,74.26
2023-03-05T07:05:26.232Z,74.62
2023-03-05T07:07:52.775Z,74.20
2023-03-05T07:10:19.485Z,74.63
2023-03-05T07:12:46.025Z,74.28
2023-03-05T07:15:12.602Z,74.27
2023-03-05T07:17:39.095Z,74.04
2023-03-05T07:20:05.907Z,74.12
2023-03-05T07:22:32.409Z,74.07
2023-03-05T07:24:58.935Z,73.92
2023-03-05T07:27:25.656Z,73.71
2023-03-05T07:29:52.180Z,73.90
2023-03-05T07:32:18.736Z,73.93
2023-03-05T07:34:45.285Z,74.17
2023-03-05T07:37:11.771Z,74.29
2023-03-05T07:39:38.268Z,73.98
2023-03-05T07:42:04.789Z,73.70
2023-03-05T07:44:47.756Z,73.56
2023-03-05T07:47:14.359Z,73.27
2023-03-05T07:49:41.746Z,73.18
2023-03-05T07:52:08.795Z,73.00
2023-03-05T07:54:38.764Z,72.63
2023-03-05T07:57:05.825Z,72.68
2023-03-05T07:59:32.397Z,72.81
2023-03-05T08:01:58.934Z,72.80
2023-03-05T08:04:25.559Z,72.39
2023-03-05T08:06:52.326Z,71.96
2023-03-05T08:09:19.262Z,71.85
2023-03-05T08:11:45.767Z,71.39
2023-03-05T08:14:12.422Z,71.51
2023-03-05T08:16:39.014Z,71.67
2023-03-05T08:19:05.776Z,72.14
2023-03-05T08:21:36.067Z,71.52
2023-03-05T08:24:04.263Z,71.33
2023-03-05T08:26:31.852Z,71.26
2023-03-05T08:28:58.483Z,71.12
2023-03-05T08:31:25.751Z,70.93
2023-03-05T08:33:53.284Z,71.31
2023-03-05T08:36:19.778Z,71.11
2023-03-05T08:38:48.505Z,70.94
2023-03-05T08:41:15.802Z,70.79
2023-03-05T08:43:42.651Z,70.81
2023-03-05T08:46:10.305Z,70.71
2023-03-05T08:48:36.858Z,70.85
2023-03-05T08:51:16.469Z,70.72
2023-03-05T08:53:43.244Z,70.88
2023-03-05T08:56:09.873Z,70.67
2023-03-05T08:58:36.368Z,70.79
2023-03-05T09:01:02.877Z,70.47
2023-03-05T09:03:29.380Z,70.24
2023-03-05T09:05:59.076Z,70.27
2023-03-05T09:08:25.602Z,69.95
2023-03-05T09:10:52.107Z,69.92
2023-03-05T09:13:18.919Z,69.69
2023-03-05T09:15:45.444Z,69.68
2023-03-05T09:18:12.046Z,69.75
2023-03-05T09:20:38.646Z,69.47
2023-03-05T09:23:05.143Z,69.34
2023-03-05T09:25:31.619Z,69.20
2023-03-05T09:27:58.122Z,68.73
2023-03-05T09:30:24.647Z,68.83
2023-03-05T09:32:51.306Z,68.83
2023-03-05T09:35:17.844Z,68.43
2023-03-05T09:37:44.326Z,67.80
2023-03-05T09:40:13.411Z,67.80
2023-03-05T09:43:03.193Z,67.37
2023-03-05T09:45:32.669Z,66.77
2023-03-05T09:48:03.155Z,66.36
2023-03-05T09:50:32.643Z,66.71
2023-03-05T09:53:12.626Z,66.90
2023-03-05T09:55:41.012Z,66.67
2023-03-05T09:58:10.536Z,66.67
2023-03-05T10:00:41.681Z,66.26
2023-03-05T10:03:16.318Z,66.25
2023-03-05T10:05:43.071Z,65.53
2023-03-05T10:08:11.417Z,65.80
2023-03-05T10:10:41.759Z,65.54
2023-03-05T10:13:16.923Z,65.75
2023-03-05T10:15:52.620Z,66.04
2023-03-05T10:18:19.096Z,65.98
2023-03-05T10:20:52.962Z,66.29
2023-03-05T10:23:24.877Z,66.04
2023-03-05T10:25:57.546Z,66.51
2023-03-05T10:28:32.844Z,66.29
2023-03-05T10:31:09.247Z,66.94
2023-03-05T10:33:57.545Z,67.03
2023-03-05T10:36:45.982Z,66.63
2023-03-05T10:39:15.406Z,66.86
2023-03-05T10:42:02.724Z,66.07
2023-03-05T10:44:45.596Z,66.51
2023-03-05T10:47:14.757Z,67.09
2023-03-05T10:49:43.912Z,66.64
2023-03-05T10:52:28.355Z,66.49
2023-03-05T10:54:54.932Z,66.22
2023-03-05T10:57:28.110Z,65.82
2023-03-05T11:00:06.630Z,65.45
2023-03-05T11:02:33.601Z,64.95
2023-03-05T11:05:00.118Z,65.76
2023-03-05T11:07:26.641Z,65.77
2023-03-05T11:10:22.722Z,65.90
2023-03-05T11:12:49.350Z,65.50
2023-03-05T11:15:15.829Z,65.73
2023-03-05T11:17:45.019Z,65.38
2023-03-05T11:20:23.602Z,65.54
2023-03-05T11:23:13.166Z,65.27
2023-03-05T11:25:50.976Z,65.78
2023-03-05T11:28:32.101Z,65.65
2023-03-05T11:31:04.244Z,65.49
2023-03-05T11:33:31.614Z,65.23
2023-03-05T11:36:18.350Z,65.33
2023-03-05T11:38:46.822Z,65.14
2023-03-05T11:41:13.465Z,64.29
2023-03-05T11:43:41.655Z,64.76
2023-03-05T11:46:09.362Z,64.40
2023-03-05T11:48:36.408Z,65.13
2023-03-05T11:51:03.461Z,64.63
2023-03-05T11:53:31.742Z,64.96
2023-03-05T11:55:59.458Z,64.77
2023-03-05T11:58:46.666Z,64.34
2023-03-05T12:01:17.440Z,63.78
2023-03-05T12:03:46.749Z,62.92
2023-03-05T12:06:25.388Z,62.69
2023-03-05T12:08:52.782Z,62.76
2023-03-05T12:11:20.802Z,61.95
2023-03-05T12:13:51.193Z,61.82
2023-03-05T12:16:17.777Z,62.12
2023-03-05T12:18:52.495Z,62.32
2023-03-05T12:21:27.952Z,62.30
2023-03-05T12:23:55.696Z,63.13
2023-03-05T12:26:40.948Z,64.84
2023-03-05T12:29:14.499Z,64.06
2023-03-05T12:31:44.270Z,63.96
2023-03-05T12:34:29.341Z,63.75
2023-03-05T12:36:55.813Z,64.44
2023-03-05T12:39:42.018Z,64.56
2023-03-05T12:42:27.315Z,64.55
2023-03-05T12:45:12.408Z,64.05
2023-03-05T12:47:40.559Z,64.92
2023-03-05T12:50:25.818Z,65.16
2023-03-05T12:52:52.948Z,64.84
2023-03-05T12:55:34.792Z,65.33
2023-03-05T12:58:09.459Z,65.73
2023-03-05T13:00:47.012Z,65.67
2023-03-05T13:03:24.767Z,65.21
2023-03-05T13:05:52.638Z,64.99
2023-03-05T13:08:19.046Z,64.45
2023-03-05T13:10:50.739Z,64.74
2023-03-05T13:13:17.982Z,64.36
2023-03-05T13:15:45.648Z,64.82
2023-03-05T13:18:15.437Z,65.09
2023-03-05T13:20:42.824Z,64.00
2023-03-05T13:23:28.330Z,63.18
2023-03-05T13:26:15.717Z,62.91
2023-03-05T13:28:42.686Z,63.08
2023-03-05T13:31:13.129Z,62.73
2023-03-05T13:33:39.920Z,62.80
2023-03-05T13:36:06.706Z,63.23
2023-03-05T13:38:34.960Z,63.05
2023-03-05T13:41:06.021Z,62.84
2023-03-05T13:43:32.618Z,63.36
2023-03-05T13:45:59.587Z,63.16
2023-03-05T13:48:26.819Z,63.05
2023-03-05T13:50:54.145Z,62.77
2023-03-05T13:53:20.585Z,63.22
2023-03-05T13:55:47.545Z,63.22
2023-03-05T13:58:32.932Z,63.21
2023-03-05T14:01:03.456Z,62.91
2023-03-05T14:03:30.201Z,63.17
2023-03-05T14:05:56.734Z,62.97
2023-03-05T14:08:27.637Z,63.46
2023-03-05T14:10:54.651Z,63.89
2023-03-05T14:13:23.628Z,64.14
2023-03-05T14:16:10.219Z,63.77
2023-03-05T14:18:37.012Z,63.81
2023-03-05T14:21:08.943Z,64.25
2023-03-05T14:23:46.016Z,64.17
2023-03-05T14:26:28.972Z,64.54
2023-03-05T14:28:57.541Z,64.78
2023-03-05T14:31:24.039Z,64.78
2023-03-05T14:33:54.037Z,64.70
2023-03-05T14:36:21.352Z,64.78
2023-03-05T14:38:48.121Z,65.17
2023-03-05T14:41:32.980Z,65.36
2023-03-05T14:43:59.528Z,65.71
2023-03-05T14:46:26.060Z,65.72
2023-03-05T14:48:52.870Z,65.79
2023-03-05T14:51:19.357Z,66.21
2023-03-05T14:53:47.624Z,65.79
2023-03-05T14:56:17.087Z,66.06
2023-03-05T14:58:43.601Z,65.49
2023-03-05T15:01:11.778Z,65.69
2023-03-05T15:03:40.933Z,65.94
2023-03-05T15:06:08.501Z,66.24
2023-03-05T15:08:35.021Z,66.26
2023-03-05T15:11:01.554Z,66.25
2023-03-05T15:13:28.061Z,66.64
2023-03-05T15:15:54.635Z,66.55
2023-03-05T15:18:21.755Z,66.65
2023-03-05T15:20:54.906Z,66.12
2023-03-05T15:23:21.819Z,66.37
2023-03-05T15:25:48.343Z,65.98
2023-03-05T15:28:15.218Z,65.94
2023-03-05T15:30:43.696Z,66.74
2023-03-05T15:33:11.250Z,66.56
2023-03-05T15:35:37.810Z,66.93
2023-03-05T15:38:04.586Z,67.28
2023-03-05T15:40:31.568Z,67.58
2023-03-05T15:42:58.648Z,67.50
2023-03-05T15:45:25.265Z,67.74
2023-03-05T15:47:52.169Z,68.06
2023-03-05T15:50:19.332Z,68.16
2023-03-05T15:52:45.844Z,68.34
2023-03-05T15:55:12.399Z,68.59
2023-03-05T15:57:43.185Z,68.57
2023-03-05T16:00:10.984Z,68.56
2023-03-05T16:02:37.653Z,68.65
2023-03-05T16:05:04.465Z,68.34
2023-03-05T16:07:32.893Z,68.43
2023-03-05T16:09:59.908Z,68.38
2023-03-05T16:12:26.920Z,68.69
2023-03-05T16:14:53.419Z,69.03
2023-03-05T16:17:20.310Z,68.69
2023-03-05T16:19:47.192Z,68.88
2023-03-05T16:22:13.920Z,68.80
2023-03-05T16:24:40.422Z,69.04
2023-03-05T16:27:06.978Z,69.18
2023-03-05T16:29:33.902Z,69.46
2023-03-05T16:32:02.456Z,69.48
2023-03-05T16:34:29.420Z,69.47
2023-03-05T16:36:56.033Z,69.35
2023-03-05T16:39:23.085Z,69.75
2023-03-05T16:41:50.011Z,69.53
2023-03-05T16:44:16.512Z,69.79
2023-03-05T16:46:49.138Z,69.54
2023-03-05T16:49:16.242Z,69.82
2023-03-05T16:51:42.728Z,69.80
2023-03-05T16:54:10.231Z,69.38
2023-03-05T16:56:36.846Z,69.92
2023-03-05T16:59:04.312Z,69.75
2023-03-05T17:01:30.884Z,70.26
2023-03-05T17:03:58.006Z,70.18
2023-03-05T17:06:25.803Z,70.51
2023-03-05T17:08:52.641Z,70.55
2023-03-05T17:11:19.832Z,70.71
2023-03-05T17:13:48.812Z,70.69
2023-03-05T17:16:16.220Z,70.67
2023-03-05T17:18:43.000Z,71.11
2023-03-05T17:21:09.636Z,71.07
2023-03-05T17:23:36.367Z,70.78
2023-03-05T17:26:04.385Z,71.01
2023-03-05T17:28:30.956Z,70.89
2023-03-05T17:31:00.180Z,70.66
2023-03-05T17:33:27.679Z,71.09
2023-03-05T17:35:55.493Z,70.87
2023-03-05T17:38:22.286Z,70.76
2023-03-05T17:40:48.991Z,70.76
2023-03-05T17:43:15.577Z,71.20
2023-03-05T17:45:42.237Z,71.27
2023-03-05T17:48:08.809Z,70.83
2023-03-05T17:50:35.630Z,71.35
2023-03-05T17:53:02.145Z,71.02
2023-03-05T17:55:28.979Z,71.17
2023-03-05T17:57:55.474Z,71.03
2023-03-05T18:00:25.652Z,70.97
2023-03-05T18:02:52.468Z,71.54
2023-03-05T18:05:19.772Z,70.97
2023-03-05T18:07:46.316Z,71.31
2023-03-05T18:10:13.423Z,71.39
2023-03-05T18:12:39.989Z,71.44
2023-03-05T18:15:07.664Z,71.07
2023-03-05T18:17:34.171Z,71.59
2023-03-05T18:20:03.831Z,70.87
2023-03-05T18:22:30.597Z,71.03
2023-03-05T18:24:58.176Z,71.16
2023-03-05T18:27:25.314Z,70.55
2023-03-05T18:29:54.224Z,71.03
2023-03-05T18:32:21.671Z,70.80
2023-03-05T18:34:50.504Z,70.77
2023-03-05T18:37:17.181Z,71.09
2023-03-05T18:39:43.674Z,70.92
2023-03-05T18:42:13.447Z,70.98
2023-03-05T18:44:40.417Z,71.26
2023-03-05T18:47:06.939Z,71.42
2023-03-05T18:49:33.831Z,71.55
2023-03-05T18:52:00.337Z,71.64
2023-03-05T18:54:26.851Z,71.68
2023-03-05T18:56:53.378Z,71.95
2023-03-05T18:59:19.847Z,72.34
2023-03-05T19:01:46.400Z,72.04
2023-03-05T19:04:13.019Z,72.84
2023-03-05T19:06:39.591Z,72.72
2023-03-05T19:09:16.994Z,72.75
2023-03-05T19:11:43.974Z,72.12
2023-03-05T19:14:10.657Z,72.19
2023-03-05T19:16:43.495Z,72.53
2023-03-05T19:19:19.928Z,72.67
2023-03-05T19:21:47.452Z,72.82
2023-03-05T19:24:14.488Z,73.30
2023-03-05T19:26:41.211Z,73.43
2023-03-05T19:29:07.991Z,73.75
2023-03-05T19:31:34.705Z,74.00
2023-03-05T19:34:01.862Z,73.96
2023-03-05T19:36:28.373Z,73.66
2023-03-05T19:38:55.471Z,73.75
2023-03-05T19:41:22.105Z,73.54
2023-03-05T19:43:51.791Z,74.13
2023-03-05T19:46:18.893Z,74.21
2023-03-05T19:48:45.504Z,74.55
2023-03-05T19:51:13.352Z,74.53
2023-03-05T19:53:40.670Z,74.72
2023-03-05T19:56:07.644Z,74.86
2023-03-05T19:58:34.597Z,74.36
2023-03-05T20:01:07.653Z,74.59
2023-03-05T20:03:34.274Z,74.76
2023-03-05T20:06:00.784Z,74.79
2023-03-05T20:08:27.294Z,74.92
2023-03-05T20:10:53.805Z,75.09
2023-03-05T20:13:20.344Z,75.58
2023-03-05T20:15:46.879Z,75.45
2023-03-05T20:18:13.421Z,74.90
2023-03-05T20:20:39.953Z,75.24
2023-03-05T20:23:06.490Z,75.69
2023-03-05T20:25:33.368Z,75.58
2023-03-05T20:28:00.083Z,76.05
2023-03-05T20:30:26.635Z,76.03
2023-03-05T20:32:53.240Z,76.07
2023-03-05T20:35:19.906Z,75.94
2023-03-05T20:37:52.360Z,75.89
2023-03-05T20:40:18.870Z,75.95
2023-03-05T20:42:45.405Z,75.75
2023-03-05T20:45:12.132Z,75.70
2023-03-05T20:47:42.453Z,75.40
2023-03-05T20:50:12.753Z,75.82
2023-03-05T20:52:39.402Z,75.34
2023-03-05T20:55:06.664Z,75.34
2023-03-05T20:57:33.219Z,75.36
2023-03-05T21:00:00.428Z,75.23
2023-03-05T21:02:27.173Z,74.94
2023-03-05T21:04:53.665Z,75.14
2023-03-05T21:07:20.162Z,75.01
2023-03-05T21:09:46.668Z,75.08
2023-03-05T21:12:13.187Z,74.97
2023-03-05T21:14:40.831Z,75.11
2023-03-05T21:17:07.924Z,74.78
2023-03-05T21:19:34.439Z,74.82
2023-03-05T21:22:01.004Z,75.03
2023-03-05T21:24:32.857Z,75.21
2023-03-05T21:26:59.390Z,75.24
2023-03-05T21:29:25.902Z,75.24
2023-03-05T21:31:52.786Z,74.95
2023-03-05T21:34:19.628Z,75.06
2023-03-05T21:36:46.141Z,74.78
2023-03-05T21:39:12.618Z,74.90
2023-03-05T21:41:39.118Z,74.77
2023-03-05T21:44:06.003Z,74.85
2023-03-05T21:46:32.635Z,75.01
2023-03-05T21:48:59.133Z,74.87
2023-03-05T21:51:30.647Z,75.19
2023-03-05T21:53:57.173Z,75.05
2023-03-05T21:56:25.513Z,75.21
2023-03-05T21:58:52.861Z,75.41
2023-03-05T22:01:21.146Z,75.08
2023-03-05T22:03:47.961Z,74.72
2023-03-05T22:06:15.525Z,74.83
2023-03-05T22:08:42.098Z,74.83
2023-03-05T22:11:09.585Z,74.67
2023-03-05T22:13:36.484Z,75.18
2023-03-05T22:16:02.980Z,75.12
2023-03-05T22:18:30.346Z,75.17
2023-03-05T22:20:57.470Z,75.17
2023-03-05T22:23:24.624Z,75.36
2023-03-05T22:26:05.067Z,75.45
2023-03-05T22:28:31.664Z,75.52
2023-03-05T22:30:58.439Z,75.32
2023-03-05T22:33:25.506Z,75.34
2023-03-05T22:35:52.072Z,74.90
2023-03-05T22:38:19.051Z,74.82
2023-03-05T22:40:46.979Z,74.48
2023-03-05T22:43:13.766Z,74.65
2023-03-05T22:45:40.388Z,74.61
2023-03-05T22:48:07.112Z,74.54
2023-03-05T22:50:33.594Z,74.17
2023-03-05T22:53:00.123Z,74.08
2023-03-05T22:55:26.630Z,74.01
2023-03-05T22:57:53.258Z,74.13
2023-03-05T23:00:23.518Z,74.23
2023-03-05T23:02:50.673Z,74.27
2023-03-05T23:05:17.367Z,74.18
2023-03-05T23:07:44.734Z,74.24
2023-03-05T23:10:13.007Z,74.14
2023-03-05T23:12:41.651Z,74.22
2023-03-05T23:15:10.420Z,74.27
2023-03-05T23:17:37.100Z,74.05
2023-03-05T23:20:05.107Z,73.98
2023-03-05T23:22:32.126Z,74.07
2023-03-05T23:24:58.626Z,74.02
2023-03-05T23:27:25.163Z,73.77
2023-03-05T23:30:08.183Z,73.75
2023-03-05T23:32:35.381Z,73.73
2023-03-05T23:35:01.981Z,73.72
2023-03-05T23:37:28.490Z,73.95
2023-03-05T23:39:54.983Z,73.95
2023-03-05T23:42:21.723Z,73.91
2023-03-05T23:44:48.190Z,73.93
2023-03-05T23:47:14.681Z,73.62
2023-03-05T23:49:41.214Z,73.60
2023-03-05T23:52:07.814Z,73.83
2023-03-05T23:54:34.541Z,73.91
2023-03-05T23:57:01.042Z,73.84
2023-03-05T23:59:27.550Z,73.86
